Easter Island, Chile
Current Conditions -  °F | °C
As of 8:00 PM on Wednesday 26 Nov 2014 (Local Time) from SCIP Reporting Station
Broken Clouds Broken Clouds  
Wind Chill: 68°   Ceiling: 3000
Heat Index: 68°   Visibility: 6mi
Dew Point: 63°   Wind: 8mph
Humidity: 83%   Direction: 100°E
Pressure: 30.03"   Gusts: NA
Location:  27.12°S, 109.37°W
Report Text: SCIP 270200Z 10007KT 9999 SCT020 BKN030 20/17 Q1017 NOSIG
Loading
Personal Weather Stations






























Interactive Weather Map New forecast layout! Learn more

10-Day Weather Forecast

Advertisements
Track Severe Weather on mobile